createdAt,value
2023-05-05T00:00:58.630Z,100362.94
2023-05-05T00:04:57.903Z,100361.08
2023-05-05T00:08:58.040Z,100360.02
2023-05-05T00:12:57.895Z,100354.90999999999
2023-05-05T00:16:58.008Z,100359.77
2023-05-05T00:24:58.208Z,100360.77
2023-05-05T00:28:58.035Z,100362.72
2023-05-05T00:32:58.060Z,100365.14
2023-05-05T00:36:57.967Z,100365.42
2023-05-05T00:40:58.140Z,100364.54
2023-05-05T00:44:58.183Z,100367.55
2023-05-05T00:48:59.621Z,100360.96
2023-05-05T00:53:00.520Z,100360.19
2023-05-05T00:56:58.191Z,100355.66
2023-05-05T01:00:58.109Z,100355.88
2023-05-05T01:04:58.359Z,100350.99
2023-05-05T01:09:04.313Z,100347.36
2023-05-05T01:13:11.782Z,100345.83
2023-05-05T01:17:03.381Z,100343.47
2023-05-05T01:21:03.473Z,100339.4
2023-05-05T01:25:13.796Z,100335.85
2023-05-05T01:29:06.010Z,100336.36
2023-05-05T01:33:04.468Z,100337.13
2023-05-05T01:37:04.374Z,100337.48000000001
2023-05-05T01:41:04.511Z,100341.15000000001
2023-05-05T01:45:02.464Z,100348.46
2023-05-05T01:48:58.383Z,100346.56
2023-05-05T01:57:01.075Z,100343.47
2023-05-05T02:00:59.545Z,100347.16
2023-05-05T02:04:59.636Z,100352.91
2023-05-05T02:09:00.417Z,100354.33
2023-05-05T02:13:00.688Z,100356.34
2023-05-05T02:16:58.788Z,100355.58
2023-05-05T02:20:58.508Z,100357.05
2023-05-05T02:29:02.973Z,100354.58
2023-05-05T02:33:05.267Z,100355.19
2023-05-05T02:37:04.693Z,100359.56999999999
2023-05-05T02:41:00.684Z,100358.39
2023-05-05T02:45:03.458Z,100358.88
2023-05-05T02:48:58.762Z,100359.93
2023-05-05T02:56:59.495Z,100353.68999999999
2023-05-05T03:01:07.431Z,100351.98000000001
2023-05-05T03:09:06.480Z,100354.63
2023-05-05T03:13:00.463Z,100349.73
2023-05-05T03:17:00.623Z,100356.76
2023-05-05T03:21:07.547Z,100351.26000000001
2023-05-05T03:24:58.548Z,100355.08
2023-05-05T03:28:58.853Z,100346.64
2023-05-05T03:32:58.711Z,100346.12
2023-05-05T03:36:58.499Z,100341.78
2023-05-05T03:41:00.544Z,100348.85
2023-05-05T03:44:58.487Z,100353.53
2023-05-05T03:52:58.727Z,100354.90999999999
2023-05-05T04:00:59.000Z,100350.61
2023-05-05T04:04:58.719Z,100350.99
2023-05-05T04:08:58.801Z,100346.23
2023-05-05T04:16:58.979Z,100351.97
2023-05-05T04:20:58.635Z,100357.64
2023-05-05T04:24:58.956Z,100358.92
2023-05-05T04:28:58.834Z,100362.05
2023-05-05T04:32:58.851Z,100367.40999999999
2023-05-05T04:36:58.805Z,100362.55
2023-05-05T04:44:58.928Z,100357.56
2023-05-05T04:48:58.786Z,100351.22
2023-05-05T04:52:58.796Z,100352.98
2023-05-05T05:00:59.018Z,100361.08
2023-05-05T05:08:58.800Z,100373.36
2023-05-05T05:12:58.859Z,100377.28
2023-05-05T05:20:58.953Z,100383.42
2023-05-05T05:24:58.922Z,100381.67
2023-05-05T05:32:59.251Z,100379.61
2023-05-05T05:36:59.231Z,100386.41
2023-05-05T05:40:59.268Z,100387.7
2023-05-05T05:44:58.925Z,100393.62999999999
2023-05-05T05:48:59.118Z,100396.66
2023-05-05T05:56:59.252Z,100401.44
2023-05-05T06:00:59.323Z,100403.2
2023-05-05T06:04:58.865Z,100402.04
2023-05-05T06:08:58.989Z,100403.81
2023-05-05T06:12:59.114Z,100409.72
2023-05-05T06:16:59.002Z,100411.85
2023-05-05T06:20:59.405Z,100411.99
2023-05-05T06:28:59.098Z,100412.25
2023-05-05T06:32:59.203Z,100406.98999999999
2023-05-05T06:36:59.140Z,100411.21
2023-05-05T06:40:59.190Z,100409.28
2023-05-05T06:44:59.182Z,100411.91
2023-05-05T06:48:58.975Z,100418.55
2023-05-05T06:53:00.388Z,100415.44
2023-05-05T06:56:59.676Z,100415.67
2023-05-05T07:00:59.243Z,100414.62
2023-05-05T07:04:59.049Z,100411.22
2023-05-05T07:08:59.329Z,100410.70999999999
2023-05-05T07:12:59.206Z,100413.76000000001
2023-05-05T07:16:59.252Z,100419.86
2023-05-05T07:21:00.322Z,100421.06
2023-05-05T07:24:59.470Z,100420.17
2023-05-05T07:28:59.230Z,100427.20000000001
2023-05-05T07:32:59.336Z,100427.45
2023-05-05T07:36:59.197Z,100428.58
2023-05-05T07:40:59.353Z,100431.16
2023-05-05T07:44:59.727Z,100431.48999999999
2023-05-05T07:48:59.370Z,100436.01
2023-05-05T07:53:10.800Z,100437.8
2023-05-05T07:56:59.450Z,100441.66
2023-05-05T08:01:00.342Z,100440.93000000001
2023-05-05T08:04:59.730Z,100433.26
2023-05-05T08:08:59.926Z,100425.56
2023-05-05T08:12:59.910Z,100428.64
2023-05-05T08:16:59.551Z,100425.56
2023-05-05T08:20:59.478Z,100432.95000000001
2023-05-05T08:24:59.656Z,100448.86
2023-05-05T08:29:00.146Z,100463.73
2023-05-05T08:32:59.673Z,100470.43
2023-05-05T08:36:59.626Z,100465.03
2023-05-05T08:40:59.316Z,100467.04999999999
2023-05-05T08:44:59.696Z,100468.84
2023-05-05T08:49:02.809Z,100468.59
2023-05-05T08:53:08.361Z,100475.55
2023-05-05T08:57:01.052Z,100482.45
2023-05-05T09:01:00.575Z,100480.86
2023-05-05T09:05:04.009Z,100482.26
2023-05-05T09:09:00.261Z,100482.12
2023-05-05T09:12:59.609Z,100477.42
2023-05-05T09:17:02.187Z,100476.51
2023-05-05T09:20:59.725Z,100474.51999999999
2023-05-05T09:24:59.815Z,100472.77
2023-05-05T09:29:00.474Z,100475.76000000001
2023-05-05T09:33:01.265Z,100467.97
2023-05-05T09:36:59.721Z,100478.3
2023-05-05T09:40:59.796Z,100478.61
2023-05-05T09:45:00.027Z,100472.22
2023-05-05T09:49:11.496Z,100472.43999999999
2023-05-05T09:53:02.024Z,100474.42
2023-05-05T09:56:59.732Z,100474.37999999999
2023-05-05T10:00:59.735Z,100475.92
2023-05-05T10:05:05.494Z,100471.64
2023-05-05T10:09:00.638Z,100473.67
2023-05-05T10:13:00.876Z,100472.75
2023-05-05T10:17:00.745Z,100470.2
2023-05-05T10:21:02.720Z,100469.95
2023-05-05T10:25:04.547Z,100466.78
2023-05-05T10:29:04.132Z,100468.0
2023-05-05T10:33:22.123Z,100465.32999999999
2023-05-05T10:36:59.919Z,100464.98
2023-05-05T10:44:59.888Z,100450.73
2023-05-05T10:49:11.638Z,100439.57
2023-05-05T10:53:09.011Z,100439.81
2023-05-05T10:57:01.570Z,100432.37000000001
2023-05-05T11:01:00.373Z,100429.36
2023-05-05T11:05:03.813Z,100436.87
2023-05-05T11:09:19.720Z,100425.23999999999
2023-05-05T11:13:18.503Z,100429.45999999999
2023-05-05T11:17:00.538Z,100428.09
2023-05-05T11:21:03.604Z,100434.23
2023-05-05T11:25:00.254Z,100435.31
2023-05-05T11:29:02.193Z,100431.87000000001
2023-05-05T11:33:19.721Z,100418.89
2023-05-05T11:37:01.704Z,100420.78
2023-05-05T11:41:09.962Z,100419.56999999999
2023-05-05T11:45:00.335Z,100412.0
2023-05-05T11:48:59.904Z,100404.35
2023-05-05T11:53:00.629Z,100398.73999999999
2023-05-05T11:57:04.087Z,100396.51
2023-05-05T12:01:04.325Z,100393.8
2023-05-05T12:05:00.611Z,100391.69
2023-05-05T12:09:00.172Z,100393.23000000001
2023-05-05T12:12:59.954Z,100397.62
2023-05-05T12:17:06.147Z,100388.67
2023-05-05T12:21:00.304Z,100387.72
2023-05-05T12:25:01.403Z,100382.34
2023-05-05T12:29:01.923Z,100375.01999999999
2023-05-05T12:33:01.008Z,100374.86
2023-05-05T12:37:00.527Z,100381.52
2023-05-05T12:41:01.394Z,100393.44
2023-05-05T12:45:00.063Z,100389.69
2023-05-05T12:49:03.623Z,100374.7
2023-05-05T12:53:00.171Z,100369.28
2023-05-05T12:57:10.359Z,100362.55
2023-05-05T13:01:07.761Z,100356.11
2023-05-05T13:05:00.403Z,100360.78
2023-05-05T13:09:00.120Z,100366.39
2023-05-05T13:13:00.462Z,100361.51999999999
2023-05-05T13:17:00.195Z,100366.27
2023-05-05T13:21:00.142Z,100366.38
2023-05-05T13:29:00.312Z,100365.22
2023-05-05T13:33:02.277Z,100368.64
2023-05-05T13:37:00.296Z,100364.67
2023-05-05T13:41:00.227Z,100359.82
2023-05-05T13:45:00.342Z,100354.24
2023-05-05T13:49:00.412Z,100355.56
2023-05-05T13:53:00.366Z,100354.04
2023-05-05T13:57:00.233Z,100345.20999999999
2023-05-05T14:01:00.430Z,100356.36
2023-05-05T14:05:00.354Z,100343.94
2023-05-05T14:09:00.654Z,100343.79000000001
2023-05-05T14:13:00.329Z,100339.67
2023-05-05T14:17:00.435Z,100335.0
2023-05-05T14:21:00.279Z,100333.37
2023-05-05T14:25:00.480Z,100328.09
2023-05-05T14:29:00.279Z,100333.58
2023-05-05T14:33:00.445Z,100321.83
2023-05-05T14:37:00.326Z,100318.16
2023-05-05T14:41:00.494Z,100311.56
2023-05-05T14:45:02.531Z,100309.7
2023-05-05T14:49:00.628Z,100303.22
2023-05-05T14:53:00.414Z,100301.65
2023-05-05T14:57:00.701Z,100294.47
2023-05-05T15:01:00.661Z,100305.22
2023-05-05T15:05:00.680Z,100324.95
2023-05-05T15:09:00.507Z,100339.73
2023-05-05T15:13:00.601Z,100344.97
2023-05-05T15:17:00.411Z,100349.69
2023-05-05T15:21:00.733Z,100342.75
2023-05-05T15:25:00.613Z,100356.76
2023-05-05T15:29:00.644Z,100356.43
2023-05-05T15:37:00.696Z,100348.94
2023-05-05T15:41:00.503Z,100349.86
2023-05-05T15:45:01.003Z,100349.27
2023-05-05T15:49:00.647Z,100339.79000000001
2023-05-05T15:53:00.736Z,100332.06
2023-05-05T15:57:02.224Z,100323.73999999999
2023-05-05T16:01:00.715Z,100324.65999999999
2023-05-05T16:05:00.615Z,100327.04
2023-05-05T16:09:00.820Z,100322.78
2023-05-05T16:13:00.689Z,100321.97
2023-05-05T16:17:01.408Z,100321.23
2023-05-05T16:21:01.588Z,100318.75
2023-05-05T16:25:00.817Z,100312.84000000001
2023-05-05T16:29:00.751Z,100311.95999999999
2023-05-05T16:33:00.786Z,100312.81
2023-05-05T16:37:00.696Z,100321.03
2023-05-05T16:41:00.847Z,100321.32
2023-05-05T16:45:00.924Z,100321.86
2023-05-05T16:49:00.798Z,100329.33
2023-05-05T16:53:00.732Z,100327.04
2023-05-05T16:57:01.427Z,100327.61
2023-05-05T17:05:01.195Z,100322.66
2023-05-05T17:09:00.908Z,100321.06
2023-05-05T17:13:01.091Z,100314.09
2023-05-05T17:21:00.980Z,100322.96
2023-05-05T17:25:01.177Z,100322.74
2023-05-05T17:29:01.687Z,100324.7
2023-05-05T17:33:00.932Z,100323.61
2023-05-05T17:37:01.075Z,100324.1
2023-05-05T17:41:01.062Z,100334.7
2023-05-05T17:45:01.729Z,100330.66
2023-05-05T17:49:01.769Z,100333.86
2023-05-05T17:53:01.118Z,100338.21
2023-05-05T17:57:01.753Z,100333.86
2023-05-05T18:01:01.148Z,100335.86
2023-05-05T18:05:00.977Z,100339.98
2023-05-05T18:09:01.193Z,100346.19
2023-05-05T18:13:01.434Z,100348.47
2023-05-05T18:17:01.487Z,100346.67
2023-05-05T18:21:00.975Z,100353.74
2023-05-05T18:25:01.196Z,100356.95
2023-05-05T18:29:01.026Z,100362.92
2023-05-05T18:33:01.350Z,100358.20999999999
2023-05-05T18:37:01.068Z,100363.04000000001
2023-05-05T18:41:01.419Z,100373.19
2023-05-05T18:45:01.080Z,100376.65
2023-05-05T18:49:01.404Z,100384.51
2023-05-05T18:53:01.264Z,100388.05
2023-05-05T18:57:02.494Z,100386.05
2023-05-05T19:01:01.188Z,100391.02
2023-05-05T19:05:02.925Z,100396.23
2023-05-05T19:09:01.099Z,100397.70999999999
2023-05-05T19:13:01.449Z,100395.43
2023-05-05T19:17:01.395Z,100406.4
2023-05-05T19:21:01.430Z,100409.22
2023-05-05T19:25:01.177Z,100416.3
2023-05-05T19:29:01.410Z,100415.62
2023-05-05T19:33:01.267Z,100415.4
2023-05-05T19:37:01.301Z,100423.14
2023-05-05T19:41:01.236Z,100428.38
2023-05-05T19:45:01.417Z,100430.66
2023-05-05T19:49:01.190Z,100426.28
2023-05-05T19:53:02.644Z,100429.69
2023-05-05T19:57:01.260Z,100433.75
2023-05-05T20:01:01.656Z,100433.18000000001
2023-05-05T20:05:01.685Z,100428.11
2023-05-05T20:09:01.838Z,100434.45
2023-05-05T20:13:01.293Z,100438.14
2023-05-05T20:17:01.497Z,100436.37999999999
2023-05-05T20:21:02.065Z,100443.95
2023-05-05T20:25:01.497Z,100443.03
2023-05-05T20:29:01.553Z,100449.08
2023-05-05T20:33:01.446Z,100449.15999999999
2023-05-05T20:37:01.566Z,100452.28
2023-05-05T20:41:01.594Z,100456.75
2023-05-05T20:45:01.808Z,100452.09
2023-05-05T20:49:02.132Z,100454.67
2023-05-05T20:53:01.391Z,100456.8
2023-05-05T20:57:02.054Z,100464.75
2023-05-05T21:01:01.573Z,100464.31
2023-05-05T21:05:01.995Z,100468.59
2023-05-05T21:09:01.445Z,100471.73
2023-05-05T21:13:02.347Z,100474.27
2023-05-05T21:17:01.574Z,100473.81
2023-05-05T21:21:01.662Z,100473.19
2023-05-05T21:25:12.385Z,100473.03
2023-05-05T21:29:01.769Z,100469.69
2023-05-05T21:33:01.558Z,100464.56
2023-05-05T21:37:02.266Z,100466.54999999999
2023-05-05T21:41:02.680Z,100464.58
2023-05-05T21:45:02.039Z,100456.88
2023-05-05T21:49:10.839Z,100453.03
2023-05-05T21:53:01.666Z,100459.78
2023-05-05T21:57:01.851Z,100460.55
2023-05-05T22:01:01.988Z,100464.22
2023-05-05T22:05:01.586Z,100460.65999999999
2023-05-05T22:09:01.828Z,100465.28
2023-05-05T22:13:01.896Z,100463.64
2023-05-05T22:17:01.963Z,100470.04
2023-05-05T22:21:02.514Z,100469.62
2023-05-05T22:25:02.035Z,100472.29999999999
2023-05-05T22:29:01.639Z,100479.35
2023-05-05T22:33:01.939Z,100476.64
2023-05-05T22:37:01.904Z,100475.69
2023-05-05T22:41:01.850Z,100468.95
2023-05-05T22:45:01.721Z,100465.81999999999
2023-05-05T22:49:02.031Z,100461.47
2023-05-05T22:53:01.760Z,100466.3
2023-05-05T22:57:02.722Z,100470.22
2023-05-05T23:01:01.824Z,100472.25
2023-05-05T23:05:02.556Z,100466.78
2023-05-05T23:09:01.770Z,100464.01
2023-05-05T23:13:01.955Z,100470.67
2023-05-05T23:17:02.052Z,100472.31
2023-05-05T23:21:01.912Z,100476.71
2023-05-05T23:25:02.267Z,100469.51000000001
2023-05-05T23:29:02.045Z,100465.45
2023-05-05T23:33:02.745Z,100461.97
2023-05-05T23:37:03.388Z,100463.14
2023-05-05T23:45:02.224Z,100459.87
2023-05-05T23:49:01.921Z,100452.0
2023-05-05T23:53:02.102Z,100453.02
2023-05-05T23:57:02.466Z,100460.1
